Time;durP1;ratioP1;P1;durP2;ratioP2;P2;SDS_P1;SDS_P2;PMS_P1;PMS_P2;Temp;Humidity;BMP_temperature;BMP_pressure;BME280_temperature;BME280_humidity;BME280_pressure;Samples;Min_cycle;Max_cycle;Signal;HPM_P1;HPM_P2
2022/09/14 00:00:41;;;;;;;;;;;;;;;19.11;68.34;100700.59;5114034;27;19915;-51
2022/09/14 00:03:07;;;;;;;;;;;;;;;19.09;68.09;100688.28;5094398;28;19919;-51
2022/09/14 00:05:35;;;;;;;;;;;;;;;19.04;69.10;100684.22;5114177;27;20011;-53
2022/09/14 00:08:01;;;;;;;;;;;;;;;18.98;71.85;100676.75;5112608;28;19912;-51
2022/09/14 00:10:26;;;;;;;;;;;;;;;18.92;69.95;100684.63;5121751;27;20064;-53
2022/09/14 00:12:51;;;;;;;;;;;;;;;18.84;69.66;100682.69;5112763;28;19944;-52
2022/09/14 00:15:16;;;;;;;;;;;;;;;18.74;71.96;100684.63;5113002;28;19908;-52
2022/09/14 00:17:44;;;;;;;;;;;;;;;18.65;69.67;100680.97;5113039;28;19916;-52
2022/09/14 00:20:09;;;;;;;;;;;;;;;18.64;71.92;100683.78;5116528;27;19931;-50
2022/09/14 00:22:34;;;;;;;;;;;;;;;18.59;70.18;100682.41;5130891;27;19915;-53
2022/09/14 00:25:00;;;;;;;;;;;;;;;18.58;70.91;100686.09;5119756;27;19922;-51
2022/09/14 00:27:25;;;;;;;;;;;;;;;18.53;71.76;100682.16;5112923;28;19919;-49
2022/09/14 00:29:50;;;;;;;;;;;;;;;18.49;70.68;100689.72;5119741;27;19915;-52
2022/09/14 00:32:18;;;;;;;;;;;;;;;18.45;72.04;100687.47;5131013;27;20331;-48
2022/09/14 00:34:43;;;;;;;;;;;;;;;18.43;71.30;100684.94;5133484;27;19941;-49
2022/09/14 00:37:09;;;;;;;;;;;;;;;18.41;71.20;100676.16;5132850;27;19915;-49
2022/09/14 00:39:35;;;;;;;;;;;;;;;18.38;71.89;100676.44;5132798;27;19915;-52
2022/09/14 00:42:00;;;;;;;;;;;;;;;18.29;74.04;100667.44;5113115;27;19911;-49
2022/09/14 00:44:26;;;;;;;;;;;;;;;18.24;72.46;100660.84;5133264;27;19923;-52
2022/09/14 00:46:52;;;;;;;;;;;;;;;18.21;71.96;100663.84;5133167;27;19915;-51
2022/09/14 00:49:18;;;;;;;;;;;;;;;18.22;71.83;100657.44;5132899;27;20006;-51
2022/09/14 00:51:50;;;;;;;;;;;;;;;18.19;71.62;100650.50;5123740;27;20015;-52
2022/09/14 00:54:15;;;;;;;;;;;;;;;18.16;73.40;100645.44;5125424;27;19912;-50
2022/09/14 00:56:41;;;;;;;;;;;;;;;18.11;73.50;100645.88;5119056;27;20374;-51
2022/09/14 00:59:11;;;;;;;;;;;;;;;18.06;73.05;100645.50;5104565;28;19968;-51
2022/09/14 01:01:37;;;;;;;;;;;;;;;18.03;72.48;100632.34;5125204;28;19915;-48
2022/09/14 01:04:03;;;;;;;;;;;;;;;18.08;72.78;100621.09;5127471;28;19933;-51
2022/09/14 01:06:37;;;;;;;;;;;;;;;18.11;72.25;100623.50;5124616;28;19916;-52
2022/09/14 01:09:11;;;;;;;;;;;;;;;18.13;71.86;100632.28;5121664;28;19923;-50
2022/09/14 01:11:42;;;;;;;;;;;;;;;18.14;72.42;100621.34;5115648;28;19915;-48
2022/09/14 01:14:07;;;;;;;;;;;;;;;18.13;72.27;100622.34;5123640;28;19922;-48
2022/09/14 01:16:40;;;;;;;;;;;;;;;18.14;72.48;100615.94;5117922;28;19916;-52
2022/09/14 01:19:09;;;;;;;;;;;;;;;18.03;72.29;100583.03;5100940;28;19996;-52
2022/09/14 01:21:37;;;;;;;;;;;;;;;18.17;72.23;100615.66;5116120;27;19932;-51
2022/09/14 01:24:05;;;;;;;;;;;;;;;18.14;71.26;100620.50;5104136;27;20002;-52
2022/09/14 01:26:30;;;;;;;;;;;;;;;18.14;72.34;100617.81;5118517;27;19911;-50
2022/09/14 01:29:12;;;;;;;;;;;;;;;18.14;72.54;100623.19;5137088;27;20270;-49
2022/09/14 01:31:44;;;;;;;;;;;;;;;18.08;74.00;100621.94;5117693;27;19939;-50
2022/09/14 01:34:15;;;;;;;;;;;;;;;18.03;74.41;100626.09;5114870;27;19916;-51
2022/09/14 01:36:43;;;;;;;;;;;;;;;18.02;73.80;100621.72;5117269;27;19916;-52
2022/09/14 01:39:09;;;;;;;;;;;;;;;18.03;72.99;100621.56;5108612;28;20328;-51
2022/09/14 01:41:35;;;;;;;;;;;;;;;18.03;75.12;100620.69;5125252;27;19919;-52
2022/09/14 01:44:06;;;;;;;;;;;;;;;17.95;73.76;100618.78;5116474;27;19915;-52
2022/09/14 01:46:40;;;;;;;;;;;;;;;17.92;73.54;100611.00;5133174;27;19938;-50
2022/09/14 01:49:31;;;;;;;;;;;;;;;17.90;73.21;100604.91;5127489;27;19980;-52
2022/09/14 01:52:08;;;;;;;;;;;;;;;17.92;73.95;100608.31;5108580;27;19919;-51
2022/09/14 01:54:39;;;;;;;;;;;;;;;17.87;72.98;100603.38;5134966;27;19916;-52
2022/09/14 01:57:17;;;;;;;;;;;;;;;17.86;73.14;100603.53;5132502;27;19931;-53
2022/09/14 01:59:44;;;;;;;;;;;;;;;17.78;73.66;100598.91;5116764;27;19919;-51
2022/09/14 02:02:13;;;;;;;;;;;;;;;17.74;73.33;100600.16;5134919;27;19990;-50
2022/09/14 02:04:45;;;;;;;;;;;;;;;17.74;73.94;100597.47;5117228;27;19916;-53
2022/09/14 02:07:13;;;;;;;;;;;;;;;17.73;73.26;100600.31;5133628;27;19955;-52
2022/09/14 02:09:39;;;;;;;;;;;;;;;17.73;72.93;100597.63;5130898;27;20369;-52
2022/09/14 02:12:04;;;;;;;;;;;;;;;17.72;73.47;100604.84;5118720;27;19956;-51
2022/09/14 02:14:30;;;;;;;;;;;;;;;17.67;73.66;100604.44;5115515;28;20285;-50
2022/09/14 02:16:55;;;;;;;;;;;;;;;17.64;71.80;100604.72;5117168;27;19969;-52
2022/09/14 02:19:20;;;;;;;;;;;;;;;17.60;72.68;100600.66;5099621;28;20053;-48
2022/09/14 02:21:46;;;;;;;;;;;;;;;17.58;72.75;100597.25;5114223;27;20393;-51
2022/09/14 02:24:11;;;;;;;;;;;;;;;17.57;74.11;100601.78;5130842;27;20366;-52
2022/09/14 02:26:37;;;;;;;;;;;;;;;17.51;73.58;100591.63;5115276;28;19919;-50
2022/09/14 02:29:03;;;;;;;;;;;;;;;17.50;74.13;100603.41;5132294;27;19915;-50
2022/09/14 02:31:37;;;;;;;;;;;;;;;17.49;74.41;100604.38;5133931;27;20019;-52
2022/09/14 02:34:23;;;;;;;;;;;;;;;17.45;74.11;100606.50;5136035;27;19912;-49
2022/09/14 02:37:10;;;;;;;;;;;;;;;17.45;73.90;100605.69;5131514;27;19921;-50
2022/09/14 02:39:41;;;;;;;;;;;;;;;17.44;73.11;100607.53;5133341;27;19919;-51
2022/09/14 02:42:06;;;;;;;;;;;;;;;17.47;73.51;100611.72;5131647;27;19977;-49
2022/09/14 02:44:41;;;;;;;;;;;;;;;17.44;72.54;100604.84;5135893;27;20441;-52
2022/09/14 02:47:20;;;;;;;;;;;;;;;17.42;72.46;100601.44;5134031;27;19963;-50
2022/09/14 02:49:45;;;;;;;;;;;;;;;17.38;73.76;100594.66;5132947;27;19949;-50
2022/09/14 02:52:29;;;;;;;;;;;;;;;17.38;73.84;100601.84;5133901;27;19972;-51
2022/09/14 02:55:03;;;;;;;;;;;;;;;17.41;72.31;100605.13;5134113;27;19923;-50
2022/09/14 02:57:29;;;;;;;;;;;;;;;17.39;74.17;100590.97;5115222;27;19924;-50
2022/09/14 02:59:54;;;;;;;;;;;;;;;17.39;73.51;100587.44;5121073;27;20309;-48
2022/09/14 03:02:22;;;;;;;;;;;;;;;17.40;72.67;100581.91;5130836;27;19916;-49
2022/09/14 03:04:47;;;;;;;;;;;;;;;17.41;72.83;100580.94;5132722;27;19920;-51
2022/09/14 03:07:12;;;;;;;;;;;;;;;17.41;73.11;100582.75;5132138;27;20257;-51
2022/09/14 03:09:37;;;;;;;;;;;;;;;17.41;72.46;100589.00;5130433;27;19915;-52
2022/09/14 03:12:03;;;;;;;;;;;;;;;17.41;72.79;100575.56;5129477;27;19923;-49
2022/09/14 03:14:30;;;;;;;;;;;;;;;17.37;73.25;100576.81;5115263;27;19998;-49
2022/09/14 03:16:56;;;;;;;;;;;;;;;17.37;72.30;100581.34;5098811;28;19920;-51
2022/09/14 03:19:21;;;;;;;;;;;;;;;17.31;72.11;100577.41;5127327;27;19922;-51
2022/09/14 03:21:46;;;;;;;;;;;;;;;17.31;73.05;100584.63;5126984;27;19966;-52
2022/09/14 03:24:11;;;;;;;;;;;;;;;17.32;73.44;100578.25;5134604;27;19911;-52
2022/09/14 03:26:37;;;;;;;;;;;;;;;17.35;73.57;100576.09;5112847;27;20040;-50
2022/09/14 03:29:04;;;;;;;;;;;;;;;17.30;74.36;100570.34;5124160;27;19922;-49
2022/09/14 03:31:30;;;;;;;;;;;;;;;17.25;74.94;100564.56;5133536;27;19915;-50
2022/09/14 03:33:58;;;;;;;;;;;;;;;17.22;74.50;100560.31;5133915;27;20206;-48
2022/09/14 03:36:24;;;;;;;;;;;;;;;17.21;74.38;100561.34;5125867;27;19920;-52
2022/09/14 03:38:51;;;;;;;;;;;;;;;17.20;73.34;100556.94;5132731;27;19927;-49
2022/09/14 03:41:17;;;;;;;;;;;;;;;17.20;72.93;100558.78;5132640;27;20400;-52
2022/09/14 03:43:42;;;;;;;;;;;;;;;17.16;75.31;100546.63;5131273;27;19916;-49
2022/09/14 03:46:09;;;;;;;;;;;;;;;17.08;75.31;100539.28;5130841;27;20384;-50
2022/09/14 03:48:35;;;;;;;;;;;;;;;17.04;75.96;100532.53;5127111;27;20404;-50
2022/09/14 03:51:01;;;;;;;;;;;;;;;17.02;74.74;100543.41;5132683;27;19951;-49
2022/09/14 03:53:26;;;;;;;;;;;;;;;17.01;75.24;100539.03;5112318;27;19915;-50
2022/09/14 03:55:52;;;;;;;;;;;;;;;16.98;75.67;100542.03;5099361;27;19916;-49
2022/09/14 03:58:17;;;;;;;;;;;;;;;16.97;75.18;100537.66;5133888;27;19928;-48
2022/09/14 04:00:42;;;;;;;;;;;;;;;16.97;75.29;100532.28;5132878;27;19915;-47
2022/09/14 04:03:07;;;;;;;;;;;;;;;16.97;76.14;100526.03;5132813;27;19922;-51
2022/09/14 04:05:33;;;;;;;;;;;;;;;16.93;77.07;100530.00;5120706;27;19915;-48
2022/09/14 04:08:01;;;;;;;;;;;;;;;16.90;76.46;100533.84;5130269;27;19958;-49
2022/09/14 04:10:28;;;;;;;;;;;;;;;16.87;76.54;100523.38;5131578;27;19911;-51
2022/09/14 04:12:56;;;;;;;;;;;;;;;16.86;75.53;100532.44;5133645;27;19912;-50
2022/09/14 04:15:21;;;;;;;;;;;;;;;16.86;75.50;100532.44;5128426;27;19937;-49
2022/09/14 04:17:47;;;;;;;;;;;;;;;16.84;75.12;100528.19;5132165;27;19919;-51
2022/09/14 04:20:12;;;;;;;;;;;;;;;16.85;75.12;100535.25;5132370;27;19922;-52
2022/09/14 04:22:38;;;;;;;;;;;;;;;16.88;74.55;100529.59;5131736;27;20014;-49
2022/09/14 04:25:03;;;;;;;;;;;;;;;16.87;74.78;100527.91;5127760;27;20298;-48
2022/09/14 04:27:29;;;;;;;;;;;;;;;16.86;75.25;100523.53;5110553;27;19927;-52
2022/09/14 04:29:54;;;;;;;;;;;;;;;16.79;76.12;100524.13;5127203;27;20393;-51
2022/09/14 04:32:20;;;;;;;;;;;;;;;16.77;76.41;100519.88;5133548;27;19911;-50
2022/09/14 04:34:46;;;;;;;;;;;;;;;16.74;75.83;100520.16;5124947;27;19916;-50
2022/09/14 04:37:12;;;;;;;;;;;;;;;16.74;75.38;100515.63;5112829;28;19922;-53
2022/09/14 04:39:37;;;;;;;;;;;;;;;16.75;75.99;100514.59;5113776;28;19915;-51
2022/09/14 04:42:03;;;;;;;;;;;;;;;16.75;75.84;100511.09;5094860;28;19912;-52
2022/09/14 04:44:28;;;;;;;;;;;;;;;16.69;76.07;100514.34;5112756;28;19918;-52
2022/09/14 04:46:53;;;;;;;;;;;;;;;16.63;76.15;100513.09;5112948;28;19916;-51
2022/09/14 04:49:20;;;;;;;;;;;;;;;16.64;76.99;100512.09;5112569;28;19969;-51
2022/09/14 04:51:45;;;;;;;;;;;;;;;16.66;76.46;100503.91;5130641;27;19923;-51
2022/09/14 04:54:14;;;;;;;;;;;;;;;16.68;76.61;100513.50;5123059;27;20350;-51
2022/09/14 04:56:43;;;;;;;;;;;;;;;16.69;76.58;100506.28;5094388;28;19919;-50
2022/09/14 04:59:09;;;;;;;;;;;;;;;16.67;77.26;100502.91;5112465;28;19920;-52
2022/09/14 05:01:36;;;;;;;;;;;;;;;16.65;76.10;100496.81;5094415;28;20031;-48
2022/09/14 05:04:02;;;;;;;;;;;;;;;16.61;75.94;100493.56;5117542;28;19923;-50
2022/09/14 05:06:30;;;;;;;;;;;;;;;16.59;75.94;100495.59;5132410;28;19917;-50
2022/09/14 05:08:58;;;;;;;;;;;;;;;16.57;76.65;100493.03;5133061;28;19915;-52
2022/09/14 05:11:25;;;;;;;;;;;;;;;16.58;76.55;100492.03;5114980;28;19967;-49
2022/09/14 05:13:50;;;;;;;;;;;;;;;16.57;76.70;100489.50;5094230;28;19916;-47
2022/09/14 05:16:16;;;;;;;;;;;;;;;16.56;76.10;100487.81;5132677;28;20483;-50
2022/09/14 05:18:41;;;;;;;;;;;;;;;16.52;77.30;100487.22;5114188;28;19915;-51
2022/09/14 05:21:08;;;;;;;;;;;;;;;16.46;76.96;100484.28;5132332;28;19911;-48
2022/09/14 05:23:33;;;;;;;;;;;;;;;16.39;77.06;100489.41;5114798;28;20392;-50
2022/09/14 05:25:59;;;;;;;;;;;;;;;16.38;75.90;100498.41;5131031;28;19915;-48
2022/09/14 05:28:25;;;;;;;;;;;;;;;16.34;76.28;100495.19;5132069;28;20019;-48
2022/09/14 05:30:50;;;;;;;;;;;;;;;16.33;77.69;100503.38;5112434;28;19916;-51
2022/09/14 05:33:15;;;;;;;;;;;;;;;16.33;76.92;100492.66;5102175;28;20010;-48
2022/09/14 05:35:40;;;;;;;;;;;;;;;16.34;76.63;100497.00;5117500;28;19920;-48
2022/09/14 05:38:08;;;;;;;;;;;;;;;16.33;76.45;100492.66;5113910;28;19962;-48
2022/09/14 05:40:33;;;;;;;;;;;;;;;16.34;76.96;100494.34;5132930;28;20377;-51
2022/09/14 05:42:59;;;;;;;;;;;;;;;16.35;76.90;100504.06;5132767;28;19918;-49
2022/09/14 05:45:24;;;;;;;;;;;;;;;16.37;76.54;100496.72;5131607;28;20010;-51
2022/09/14 05:47:49;;;;;;;;;;;;;;;16.41;76.46;100502.66;5093751;28;19957;-52
2022/09/14 05:50:14;;;;;;;;;;;;;;;16.40;76.35;100498.28;5112052;28;19916;-52
2022/09/14 05:52:40;;;;;;;;;;;;;;;16.40;76.98;100501.81;5093380;28;20433;-49
2022/09/14 05:55:06;;;;;;;;;;;;;;;16.41;76.04;100502.66;5112334;28;19958;-49
2022/09/14 05:57:31;;;;;;;;;;;;;;;16.44;76.05;100508.59;5094414;28;19966;-52
2022/09/14 05:59:56;;;;;;;;;;;;;;;16.49;76.46;100497.41;5111863;28;19923;-51
2022/09/14 06:02:22;;;;;;;;;;;;;;;16.49;77.00;100505.47;5112054;28;19919;-51
2022/09/14 06:04:47;;;;;;;;;;;;;;;16.49;76.17;100505.47;5094227;28;19912;-50
2022/09/14 06:07:12;;;;;;;;;;;;;;;16.50;76.30;100512.53;5097657;28;19916;-49
2022/09/14 06:09:37;;;;;;;;;;;;;;;16.52;76.63;100507.88;5115485;28;19911;-50
2022/09/14 06:12:03;;;;;;;;;;;;;;;16.54;76.79;100517.47;5115619;28;19912;-49
2022/09/14 06:14:28;;;;;;;;;;;;;;;16.52;77.21;100523.97;5115516;28;20431;-52
2022/09/14 06:16:53;;;;;;;;;;;;;;;16.48;76.64;100518.06;5097691;28;20325;-49
2022/09/14 06:19:18;;;;;;;;;;;;;;;16.44;77.03;100527.41;5117372;27;19920;-50
2022/09/14 06:21:44;;;;;;;;;;;;;;;16.39;76.05;100535.03;5130426;27;19931;-50
2022/09/14 06:24:11;;;;;;;;;;;;;;;16.37;76.93;100525.41;5117526;27;19956;-52
2022/09/14 06:26:36;;;;;;;;;;;;;;;16.38;77.17;100527.09;5132413;27;19968;-52
2022/09/14 06:29:02;;;;;;;;;;;;;;;16.37;77.81;100523.56;5123588;27;19915;-50
2022/09/14 06:31:27;;;;;;;;;;;;;;;16.34;78.12;100522.00;5096201;28;19916;-47
2022/09/14 06:33:52;;;;;;;;;;;;;;;16.31;78.76;100527.66;5114930;28;19947;-48
2022/09/14 06:36:19;;;;;;;;;;;;;;;16.32;78.01;100526.69;5114370;28;19916;-49
2022/09/14 06:38:45;;;;;;;;;;;;;;;16.37;78.73;100526.25;5116125;27;19919;-49
2022/09/14 06:41:12;;;;;;;;;;;;;;;16.32;78.49;100518.66;5121134;27;19919;-50
2022/09/14 06:43:38;;;;;;;;;;;;;;;16.30;77.82;100512.56;5115485;27;20440;-51
2022/09/14 06:46:09;;;;;;;;;;;;;;;16.29;77.51;100513.53;5115549;27;20022;-52
2022/09/14 06:48:36;;;;;;;;;;;;;;;16.29;77.94;100508.16;5111750;27;19967;-49
2022/09/14 06:51:31;;;;;;;;;;;;;;;16.23;79.08;100506.06;5121429;27;20281;-52
2022/09/14 06:53:58;;;;;;;;;;;;;;;16.17;78.67;100503.09;5083145;27;20340;-52
2022/09/14 06:56:24;;;;;;;;;;;;;;;16.16;77.78;100496.88;5095642;28;20328;-52
2022/09/14 06:58:52;;;;;;;;;;;;;;;16.17;78.07;100498.56;5122093;27;19924;-51
2022/09/14 07:01:21;;;;;;;;;;;;;;;16.19;77.35;100498.44;5119765;27;19989;-50
2022/09/14 07:03:46;;;;;;;;;;;;;;;16.17;77.79;100495.88;5117579;27;19962;-52
2022/09/14 07:06:14;;;;;;;;;;;;;;;16.17;78.63;100490.53;5113341;28;19943;-50
2022/09/14 07:08:40;;;;;;;;;;;;;;;16.13;78.71;100492.66;5119468;27;20002;-52
2022/09/14 07:11:06;;;;;;;;;;;;;;;16.11;79.08;100491.09;5095254;28;19959;-52
2022/09/14 07:13:32;;;;;;;;;;;;;;;16.07;79.57;100481.63;5129234;27;19950;-50
2022/09/14 07:15:57;;;;;;;;;;;;;;;16.04;80.40;100482.78;5097193;28;19963;-49
2022/09/14 07:18:30;;;;;;;;;;;;;;;15.95;80.55;100477.41;5116292;27;19916;-50
2022/09/14 07:20:59;;;;;;;;;;;;;;;15.90;80.32;100480.50;5113282;28;19919;-51
2022/09/14 07:23:24;;;;;;;;;;;;;;;15.86;80.77;100482.63;5123204;27;19915;-52
2022/09/14 07:25:58;;;;;;;;;;;;;;;15.83;80.15;100477.53;5104608;27;20312;-51
2022/09/14 07:28:23;;;;;;;;;;;;;;;15.87;80.19;100483.47;5117262;27;19916;-49
2022/09/14 07:30:48;;;;;;;;;;;;;;;15.89;80.45;100473.44;5128714;27;19912;-50
2022/09/14 07:33:14;;;;;;;;;;;;;;;15.89;80.16;100481.50;5126342;27;19954;-51
2022/09/14 07:35:39;;;;;;;;;;;;;;;15.93;80.08;100479.38;5098859;27;20270;-47
2022/09/14 07:38:04;;;;;;;;;;;;;;;15.93;79.81;100490.94;5110806;27;19924;-49
2022/09/14 07:40:29;;;;;;;;;;;;;;;15.93;80.14;100484.75;5112279;28;20366;-50
2022/09/14 07:42:55;;;;;;;;;;;;;;;15.97;80.65;100484.34;5095227;28;20270;-48
2022/09/14 07:45:20;;;;;;;;;;;;;;;16.00;80.13;100472.44;5114522;27;19916;-49
2022/09/14 07:47:46;;;;;;;;;;;;;;;16.07;80.19;100476.28;5115218;27;20366;-49
2022/09/14 07:50:11;;;;;;;;;;;;;;;16.08;81.20;100477.97;5114773;27;19915;-50
2022/09/14 07:52:38;;;;;;;;;;;;;;;16.05;80.22;100475.56;5099534;28;19919;-48
2022/09/14 07:55:05;;;;;;;;;;;;;;;16.04;81.62;100474.72;5126504;27;19936;-51
2022/09/14 07:57:31;;;;;;;;;;;;;;;16.03;80.04;100481.09;5132492;27;19969;-53
2022/09/14 07:59:57;;;;;;;;;;;;;;;16.04;79.70;100473.88;5113147;28;20375;-49
2022/09/14 08:02:23;;;;;;;;;;;;;;;16.08;79.46;100476.13;5095064;28;19918;-53
2022/09/14 08:04:52;;;;;;;;;;;;;;;16.15;79.41;100472.88;5094936;28;19912;-51
2022/09/14 08:07:18;;;;;;;;;;;;;;;16.16;79.62;100470.06;5094533;28;19912;-52
2022/09/14 08:09:44;;;;;;;;;;;;;;;16.11;81.17;100478.50;5114151;27;20284;-49
2022/09/14 08:12:09;;;;;;;;;;;;;;;16.11;80.22;100473.16;5112014;28;19961;-51
2022/09/14 08:14:35;;;;;;;;;;;;;;;16.08;81.58;100473.44;5102815;28;19955;-51
2022/09/14 08:17:01;;;;;;;;;;;;;;;16.10;81.06;100478.69;5136908;27;19965;-50
2022/09/14 08:19:26;;;;;;;;;;;;;;;16.13;80.88;100470.34;5114412;27;19911;-51
2022/09/14 08:21:51;;;;;;;;;;;;;;;16.13;83.55;100459.59;5111825;28;19923;-52
2022/09/14 08:24:18;;;;;;;;;;;;;;;16.10;81.30;100473.31;5102564;28;19964;-49
2022/09/14 08:26:44;;;;;;;;;;;;;;;16.07;82.11;100476.28;5102167;28;19980;-51
2022/09/14 08:29:11;;;;;;;;;;;;;;;16.04;82.34;100477.41;5114374;27;19912;-50
2022/09/14 08:31:37;;;;;;;;;;;;;;;16.05;81.60;100479.09;5112101;28;19916;-53
2022/09/14 08:34:03;;;;;;;;;;;;;;;16.09;83.14;100477.00;5113252;28;19911;-52
2022/09/14 08:36:30;;;;;;;;;;;;;;;16.09;81.64;100482.34;5112324;28;19922;-50
2022/09/14 08:38:55;;;;;;;;;;;;;;;16.13;81.36;100481.06;5121031;27;19919;-53
2022/09/14 08:41:24;;;;;;;;;;;;;;;16.17;81.13;100485.16;5114269;27;19915;-52
2022/09/14 08:43:49;;;;;;;;;;;;;;;16.18;82.83;100477.94;5133129;27;19915;-51
2022/09/14 08:46:43;;;;;;;;;;;;;;;16.11;82.07;100485.72;5097081;27;19964;-49
2022/09/14 08:49:17;;;;;;;;;;;;;;;16.13;82.97;100481.91;5104036;28;19957;-51
2022/09/14 08:51:43;;;;;;;;;;;;;;;16.09;82.63;100491.25;5112376;28;19938;-50
2022/09/14 08:54:09;;;;;;;;;;;;;;;16.07;82.38;100489.69;5094313;28;19995;-51
2022/09/14 08:56:36;;;;;;;;;;;;;;;16.10;82.04;100490.25;5094063;28;19916;-52
2022/09/14 08:59:02;;;;;;;;;;;;;;;16.13;82.12;100489.13;5113554;28;19919;-51
2022/09/14 09:01:36;;;;;;;;;;;;;;;16.17;82.85;100501.25;5120555;28;20384;-51
2022/09/14 09:04:01;;;;;;;;;;;;;;;16.16;81.92;100491.53;5094208;28;20290;-52
2022/09/14 09:06:45;;;;;;;;;;;;;;;16.19;82.19;100485.03;5111731;28;19915;-51
2022/09/14 09:09:13;;;;;;;;;;;;;;;16.18;81.96;100488.69;5112173;28;19915;-50
2022/09/14 09:11:40;;;;;;;;;;;;;;;16.18;81.58;100486.00;5111728;28;19912;-51
2022/09/14 09:14:17;;;;;;;;;;;;;;;16.21;81.71;100491.94;5112883;28;19915;-51
2022/09/14 09:16:44;;;;;;;;;;;;;;;16.22;82.19;100490.09;5132497;28;19911;-52
2022/09/14 09:19:17;;;;;;;;;;;;;;;16.23;82.07;100489.09;5132722;28;20392;-49
2022/09/14 09:21:44;;;;;;;;;;;;;;;16.28;82.24;100482.31;5132062;28;19963;-52
2022/09/14 09:24:09;;;;;;;;;;;;;;;16.31;82.97;100481.19;5130904;28;19920;-53
2022/09/14 09:26:37;;;;;;;;;;;;;;;16.30;83.20;100477.69;5114019;28;20000;-51
2022/09/14 09:29:02;;;;;;;;;;;;;;;16.27;82.51;100487.84;5114204;28;19965;-49
2022/09/14 09:31:34;;;;;;;;;;;;;;;16.30;82.56;100476.84;5114056;28;19951;-51
2022/09/14 09:33:59;;;;;;;;;;;;;;;16.34;82.22;100468.34;5104295;28;19916;-52
2022/09/14 09:36:29;;;;;;;;;;;;;;;16.39;82.18;100475.97;5119524;28;19976;-52
2022/09/14 09:38:54;;;;;;;;;;;;;;;16.45;82.61;100470.03;5101606;28;19920;-51
2022/09/14 09:41:25;;;;;;;;;;;;;;;16.44;82.92;100473.72;5118482;27;19923;-50
2022/09/14 09:44:08;;;;;;;;;;;;;;;16.38;82.46;100474.25;5102596;28;20419;-52
2022/09/14 09:46:34;;;;;;;;;;;;;;;16.34;83.92;100476.38;5111951;28;19912;-52
2022/09/14 09:49:14;;;;;;;;;;;;;;;16.30;82.92;100484.88;5115591;28;19922;-54
2022/09/14 09:51:40;;;;;;;;;;;;;;;16.34;82.00;100479.06;5114784;28;19912;-53
2022/09/14 09:54:11;;;;;;;;;;;;;;;16.41;82.37;100476.66;5108158;27;20374;-53
2022/09/14 09:56:38;;;;;;;;;;;;;;;16.45;82.38;100483.44;5124968;27;21016;-51
2022/09/14 09:59:20;;;;;;;;;;;;;;;16.48;82.50;100474.25;5108829;28;19920;-52
2022/09/14 10:01:45;;;;;;;;;;;;;;;16.48;82.30;100475.09;5109376;28;19923;-52
2022/09/14 10:04:18;;;;;;;;;;;;;;;16.52;82.03;100475.66;5113997;27;19915;-52
2022/09/14 10:06:45;;;;;;;;;;;;;;;16.58;82.48;100473.22;5130935;27;19922;-53
2022/09/14 10:09:15;;;;;;;;;;;;;;;16.65;83.48;100475.34;5098199;28;20006;-50
2022/09/14 10:11:41;;;;;;;;;;;;;;;16.66;82.75;100483.25;5113785;27;19919;-53
2022/09/14 10:14:19;;;;;;;;;;;;;;;16.68;82.52;100481.28;5116851;27;19915;-52
2022/09/14 10:16:44;;;;;;;;;;;;;;;16.72;83.46;100484.53;5117446;27;20395;-52
2022/09/14 10:19:24;;;;;;;;;;;;;;;16.67;82.78;100482.25;5117784;27;20061;-50
2022/09/14 10:22:04;;;;;;;;;;;;;;;16.66;83.47;100477.88;5122968;27;19915;-50
2022/09/14 10:24:30;;;;;;;;;;;;;;;16.67;83.29;100470.69;5100565;27;19915;-53
2022/09/14 10:26:56;;;;;;;;;;;;;;;16.67;84.26;100476.88;5114923;27;19920;-51
2022/09/14 10:29:34;;;;;;;;;;;;;;;16.67;84.51;100482.25;5114224;28;19937;-53
2022/09/14 10:32:21;;;;;;;;;;;;;;;16.68;82.44;100478.59;5104085;27;20006;-50
2022/09/14 10:34:46;;;;;;;;;;;;;;;16.64;83.01;100476.34;5091884;28;20242;-50
2022/09/14 10:37:19;;;;;;;;;;;;;;;16.63;82.78;100474.66;5095261;28;19912;-51
2022/09/14 10:40:11;;;;;;;;;;;;;;;16.64;82.78;100474.50;5114500;28;19935;-51
2022/09/14 10:42:38;;;;;;;;;;;;;;;16.64;82.73;100476.34;5103836;28;19923;-49
2022/09/14 10:45:13;;;;;;;;;;;;;;;16.65;82.72;100473.53;5116133;27;19939;-49
2022/09/14 10:47:42;;;;;;;;;;;;;;;16.67;83.29;100462.63;5104955;28;20267;-51
2022/09/14 10:50:25;;;;;;;;;;;;;;;16.67;83.38;100462.63;5118007;27;19949;-51
2022/09/14 10:53:09;;;;;;;;;;;;;;;16.66;83.00;100472.50;5093253;28;20041;-53
2022/09/14 10:55:42;;;;;;;;;;;;;;;16.67;82.52;100476.03;5094176;28;19920;-51
2022/09/14 10:58:16;;;;;;;;;;;;;;;16.63;82.13;100477.34;5098765;28;19924;-53
2022/09/14 11:00:57;;;;;;;;;;;;;;;16.58;81.71;100478.59;5107566;28;19923;-53
2022/09/14 11:03:23;;;;;;;;;;;;;;;16.64;82.21;100471.81;5096452;28;19915;-51
2022/09/14 11:06:06;;;;;;;;;;;;;;;16.70;80.98;100475.75;5113952;28;19968;-52
2022/09/14 11:08:36;;;;;;;;;;;;;;;16.70;81.98;100471.22;5094999;28;19922;-49
2022/09/14 11:11:13;;;;;;;;;;;;;;;16.71;81.81;100461.34;5113402;27;19960;-51
2022/09/14 11:13:51;;;;;;;;;;;;;;;16.72;81.13;100458.50;5103696;28;19916;-53
2022/09/14 11:16:31;;;;;;;;;;;;;;;16.73;81.04;100459.34;5113231;28;19919;-52
2022/09/14 11:19:09;;;;;;;;;;;;;;;16.59;81.44;100460.69;5113801;28;20003;-48
2022/09/14 11:21:43;;;;;;;;;;;;;;;16.55;82.39;100452.03;5112642;28;19920;-50
2022/09/14 11:24:15;;;;;;;;;;;;;;;16.51;81.77;100450.66;5110267;28;19919;-50
2022/09/14 11:26:53;;;;;;;;;;;;;;;16.46;83.90;100444.84;5096826;28;19919;-52
2022/09/14 11:29:22;;;;;;;;;;;;;;;16.45;83.02;100447.72;5113171;28;19939;-52
2022/09/14 11:31:52;;;;;;;;;;;;;;;16.46;82.97;100447.53;5110336;27;20417;-50
2022/09/14 11:34:46;;;;;;;;;;;;;;;16.49;83.14;100447.25;5114186;27;19915;-49
2022/09/14 11:37:13;;;;;;;;;;;;;;;16.49;81.97;100452.63;5119986;27;20311;-52
2022/09/14 11:39:42;;;;;;;;;;;;;;;16.49;81.96;100444.56;5098897;28;19911;-52
2022/09/14 11:42:29;;;;;;;;;;;;;;;16.49;81.49;100444.56;5120652;27;20013;-52
2022/09/14 11:45:01;;;;;;;;;;;;;;;16.48;80.86;100447.41;5130703;27;19972;-53
2022/09/14 11:47:30;;;;;;;;;;;;;;;16.42;80.71;100446.16;5117477;27;19949;-52
2022/09/14 11:49:59;;;;;;;;;;;;;;;16.41;81.45;100449.81;5100349;28;20660;-51
2022/09/14 11:52:25;;;;;;;;;;;;;;;16.39;80.45;100442.91;5112336;28;19916;-53
2022/09/14 11:54:54;;;;;;;;;;;;;;;16.37;81.66;100445.72;5105693;27;19916;-53
2022/09/14 11:57:21;;;;;;;;;;;;;;;16.35;81.20;100455.75;5113803;27;20026;-53
2022/09/14 11:59:49;;;;;;;;;;;;;;;16.34;81.04;100459.44;5113751;27;19919;-50
2022/09/14 12:02:26;;;;;;;;;;;;;;;16.38;81.08;100465.34;5112110;27;20150;-53
2022/09/14 12:05:03;;;;;;;;;;;;;;;16.42;81.52;100456.06;5101199;27;19916;-52
2022/09/14 12:07:38;;;;;;;;;;;;;;;16.42;81.04;100448.84;5099088;28;19912;-53
2022/09/14 12:10:12;;;;;;;;;;;;;;;16.44;80.87;100449.56;5115470;27;19915;-52
2022/09/14 12:12:38;;;;;;;;;;;;;;;16.47;80.83;100451.06;5102743;28;20362;-52
2022/09/14 12:15:11;;;;;;;;;;;;;;;16.41;79.93;100455.19;5115659;27;19994;-53
2022/09/14 12:17:36;;;;;;;;;;;;;;;16.31;80.44;100457.03;5095927;28;19920;-52
2022/09/14 12:20:20;;;;;;;;;;;;;;;16.24;80.15;100455.94;5098624;27;19919;-53
2022/09/14 12:22:47;;;;;;;;;;;;;;;16.20;80.30;100455.34;5112964;27;19916;-53
2022/09/14 12:25:13;;;;;;;;;;;;;;;16.23;79.90;100447.00;5114945;27;19920;-53
2022/09/14 12:27:39;;;;;;;;;;;;;;;16.26;80.04;100451.25;5094467;28;19916;-52
2022/09/14 12:30:25;;;;;;;;;;;;;;;16.29;79.96;100456.34;5113007;28;19955;-52
2022/09/14 12:32:50;;;;;;;;;;;;;;;16.29;79.96;100454.50;5090735;28;19924;-52
2022/09/14 12:35:42;;;;;;;;;;;;;;;16.34;80.36;100448.72;5113541;28;19917;-51
2022/09/14 12:38:26;;;;;;;;;;;;;;;16.38;81.02;100443.88;5112514;28;19963;-50
2022/09/14 12:40:51;;;;;;;;;;;;;;;16.41;80.71;100440.91;5094400;28;19951;-52
2022/09/14 12:43:32;;;;;;;;;;;;;;;16.41;81.40;100436.38;5095141;27;20385;-50